Coggeshall, United Kingdom
Current Conditions -  °F | °C
As of 1:20 AM on Tuesday 23 Dec 2014 (Local Time) from EGSS Reporting Station
Overcast Overcast  
Wind Chill: 11°   Ceiling: 2000
Heat Index: 11°   Visibility: 6mi
Dew Point:   Wind: 18mph
Humidity: 82%   Direction: 240°WSW
Pressure: 30"   Gusts: NA
Location:  51.87°N, 0.69°E
Report Text: EGSS 230120Z 24016KT 9999 OVC020 11/08 Q1016
Loading
Personal Weather Stations






























Interactive Weather Map New forecast layout! Learn more

10-Day Weather Forecast

Advertisements
Track Severe Weather on mobile